Flight Track Log - Related Links

Times and Time Zones

All times are in EST time to prevent confusion due to time zone crossing. See the FLG3757 flight status page for this flight to view local times or setup timezone preferences in your user account.

Time Position Orientation Groundspeed Altitude Reporting Facility
EST Latitude Longitude Course Direction KTS MPH feet Rate Location/Type
Fri 06:26:24 AM 42.1742 -75.9614 245° Southwest 152 175 3,100  Level New York Center
Fri 06:27:24 AM 42.1553 -76.0158 245° Southwest 194 223 5,100 2,200 Climbing New York Center
Fri 06:28:24 AM 42.1828 -76.0992 294° West 214 246 7,500 2,450 Climbing New York Center
Fri 06:29:24 AM 42.2100 -76.1881 292° West 232 267 10,000 1,800 Climbing New York Center
Fri 06:30:24 AM 42.2408 -76.2886 293° West 267 307 11,100 1,000 Climbing New York Center
Fri 06:31:24 AM 42.2747 -76.4064 291° West 306 352 12,000 1,150 Climbing New York Center
Fri 06:32:24 AM 42.3111 -76.5161 294° West 335 386 13,400 1,640 Climbing New York Center
Fri 06:33:54 AM 42.3708 -76.7169 292° West 368 423 16,100 1,760 Climbing Cleveland Center
Fri 06:34:54 AM 42.4094 -76.8472 292° West 373 429 17,800 1,736 Climbing Cleveland Center
Fri 06:35:55 AM 42.4481 -76.9744 292° West 369 425 19,600 1,574 Climbing Cleveland Center
Fri 06:36:56 AM 42.4758 -77.1031 286° West 360 414 21,000 1,180 Climbing Cleveland Center
Fri 06:37:57 AM 42.4864 -77.2367 276° West 358 412 22,000 984 Climbing Cleveland Center
Fri 06:38:58 AM 42.4967 -77.3708 276° West 358 412 23,000 984 Climbing Cleveland Center
Fri 06:39:59 AM 42.5072 -77.5047 276° West 358 412 24,000 984 Climbing Cleveland Center
Fri 06:41:00 AM 42.5164 -77.6361 275° West 353 406 25,000 984 Climbing Cleveland Center
Fri 06:42:01 AM 42.5272 -77.7650 277° West 347 399 26,000 836 Climbing Cleveland Center
Fri 06:43:02 AM 42.5361 -77.9033 275° West 348 400 26,700 590 Climbing Cleveland Center
Fri 06:44:03 AM 42.5453 -78.0381 275° West 356 410 27,200 492 Climbing Cleveland Center
Fri 06:45:04 AM 42.5511 -78.1753 273° West 363 418 27,700 393 Climbing Cleveland Center
Fri 06:46:05 AM 42.5561 -78.3106 273° West 361 415 28,000 148 Climbing Cleveland Center
Fri 06:47:06 AM 42.5603 -78.4508 272° West 371 427 28,000  Level Cleveland Center
Fri 06:48:07 AM 42.5667 -78.5994 273° West 395 455 28,000  Level Cleveland Center
Fri 06:49:08 AM 42.5722 -78.7764 273° West 394 453 28,000  Level Cleveland Center
Fri 06:50:09 AM 42.5781 -78.9250 273° West 396 456 28,000  Level Cleveland Center
Fri 06:51:10 AM 42.5808 -79.0767 271° West 402 463 28,000  Level Cleveland Center
Fri 06:52:11 AM 42.5864 -79.2286 273° West 406 467 28,000  Level Cleveland Center
Fri 06:53:12 AM 42.5903 -79.3808 272° West 405 466 28,000  Level Cleveland Center
Fri 06:54:14 AM 42.5939 -79.5344 272° West 409 471 28,000  Level Cleveland Center
Fri 06:55:15 AM 42.5978 -79.6886 272° West 410 472 28,000  Level Cleveland Center
Fri 06:56:16 AM 42.6014 -79.8442 272° West 414 476 28,000  Level Cleveland Center
Fri 06:57:17 AM 42.6039 -80.0117 271° West 409 471 28,000  Level Cleveland Center
Fri 06:58:18 AM 42.6069 -80.1706 272° West 417 480 28,000  Level Cleveland Center
Fri 06:59:20 AM 42.6097 -80.3286 271° West 416 479 28,000  Level Cleveland Center
Fri 07:00:21 AM 42.6128 -80.4875 272° West 419 482 28,000  Level Cleveland Center
Fri 07:01:23 AM 42.6142 -80.6461 271° West 419 482 28,000  Level Cleveland Center
Fri 07:02:24 AM 42.6175 -80.8083 272° West 427 491 28,000  Level Cleveland Center
Fri 07:03:25 AM 42.6200 -80.9669 271° West 420 483 28,000 -197 Level Cleveland Center
Fri 07:04:26 AM 42.6217 -81.1269 271° West 420 483 27,600 -683 Descending Cleveland Center
Fri 07:05:28 AM 42.6239 -81.2856 271° West 420 483 26,600 -1,073 Descending Cleveland Center
Fri 07:06:29 AM 42.6253 -81.4667 271° West 411 473 25,400 -1,082 Descending Cleveland Center
Fri 07:07:30 AM 42.6214 -81.6244 268° West 415 478 24,400 -1,415 Descending Cleveland Center
Fri 07:08:32 AM 42.6025 -81.7786 261° West 413 475 22,500 -1,805 Descending Cleveland Center
Fri 07:09:33 AM 42.5881 -81.9039 261° West 387 445 20,700 -1,869 Descending Cleveland Center
Fri 07:10:34 AM 42.5717 -82.0408 261° West 373 429 18,700 -2,098 Descending Cleveland Center
Fri 07:11:36 AM 42.5514 -82.2056 261° West 371 427 16,400 -2,077 Descending Cleveland Center
Fri 07:12:18 AM 42.5400 -82.2958 260° West 354 407 15,100 -1,800 Descending Cleveland Center
Fri 07:12:36 AM 42.5350 -82.3350 260° West 343 395 14,600 -1,579 Descending Cleveland Center
Fri 07:12:37 AM 42.5344 -82.3364 242° Southwest 360 414 14,600 -1,770 Level Cleveland Center
Fri 07:13:37 AM 42.5178 -82.4631 260° West 345 397 12,800 -1,742 Descending Cleveland Center
Fri 07:13:39 AM 42.5194 -82.4619 26° Northeast 345 397 12,800 -787 Level Cleveland Center
Fri 07:14:38 AM 42.4925 -82.5842 253° West 338 389 12,000 -787 Descending Cleveland Center
Fri 07:14:40 AM 42.4950 -82.5839 North 340 391 12,000 -885 Level Cleveland Center
Fri 07:15:39 AM 42.4556 -82.6925 244° Southwest 304 350 11,100 -871 Descending Cleveland Center
Fri 07:15:42 AM 42.4561 -82.6906 69° East 324 373 11,100 -1,200 Level Cleveland Center
Fri 07:16:39 AM 42.4211 -82.7925 245° Southwest 272 313 9,900 -1,082 Descending Cleveland Center
Fri 07:16:43 AM 42.4225 -82.7850 76° East 291 335 10,000 -1,377 Climbing Cleveland Center
Fri 07:17:40 AM 42.4103 -82.8844 261° West 248 285 8,500 -1,377 Descending Cleveland Center
Fri 07:17:44 AM 42.4117 -82.8758 78° East 257 296 8,600 -1,475 Climbing Cleveland Center
Fri 07:18:41 AM 42.3994 -82.9733 260° West 244 281 7,000 -1,452 Descending Cleveland Center
Fri 07:18:46 AM 42.4017 -82.9658 68° East 245 282 7,100 -984 Climbing Cleveland Center
Fri 07:19:42 AM 42.3825 -83.0586 254° West 236 272 6,000 -1,180 Descending Cleveland Center
Fri 07:19:47 AM 42.3800 -83.0683 251° West 239 275 5,900 -896 Descending Cleveland Center
Fri 07:20:49 AM 42.3622 -83.1525 254° West 236 272 5,000 -1,077 Descending Cleveland Center
Fri 07:21:44 AM 42.3367 -83.2217 243° Southwest 209 241 3,800 -1,258 Descending Cleveland Center
Fri 07:21:51 AM 42.3361 -83.2233 246° West 215 247 3,700 -1,100 Descending Cleveland Center
Fri 07:22:44 AM 42.3014 -83.2733 227° Southwest 173 199 2,700 -1,082 Descending Cleveland Center
Fri 07:22:52 AM 42.3011 -83.2747 255° West 190 219 2,600 -885 Descending Cleveland Center
Fri 07:23:45 AM 42.2658 -83.2994 207° Southwest 133 153 1,800 -774 Descending Cleveland Center
Fri 07:23:54 AM 42.2658 -83.3011 270° West 162 186 1,800 -716 Level Cleveland Center
Fri 07:24:52 AM 42.2322 -83.3258 209° Southwest 126 145 1,000 -590 Descending Cleveland Center
Fri 07:24:55 AM 42.2314 -83.3253 154° Southeast 143 165 1,200 4,000 Climbing Cleveland Center
Fri 07:26:00 AM 42.2124 -83.3534 236° Southwest  Level Estimated
Fri 07:33:00 AM 42.2124 -83.3534 236° Southwest  Level Estimated
Fri 07:34:00 AM 42.2124 -83.3534 236° Southwest  Level Estimated

Login

Don't have an account? Register now (free) for customized features, flight alerts, and more!